Time;durP1;ratioP1;P1;durP2;ratioP2;P2;SDS_P1;SDS_P2;PMS_P1;PMS_P2;Temp;Humidity;BMP_temperature;BMP_pressure;BME280_temperature;BME280_humidity;BME280_pressure;Samples;Min_cycle;Max_cycle;Signal;HPM_P1;HPM_P2
2021/07/10 00:00:10;;;;;;;549.95;436.77;;;;;;;;;;4933673;29;20039;-80
2021/07/10 00:02:36;;;;;;;553.05;433.75;;;;;;;;;;4935316;29;20031;-81
2021/07/10 00:05:03;;;;;;;554.90;434.17;;;;;;;;;;4933197;29;20027;-81
2021/07/10 00:07:29;;;;;;;550.38;434.30;;;;;;;;;;4935849;29;20182;-81
2021/07/10 00:09:55;;;;;;;561.28;443.08;;;;;;;;;;4935337;29;20110;-81
2021/07/10 00:12:21;;;;;;;560.20;445.05;;;;;;;;;;4952588;29;20392;-81
2021/07/10 00:14:47;;;;;;;561.10;446.50;;;;;;;;;;4932396;29;20094;-81
2021/07/10 00:17:13;;;;;;;568.53;452.65;;;;;;;;;;4924525;29;20117;-81
2021/07/10 00:19:39;;;;;;;574.10;460.10;;;;;;;;;;4928448;29;20492;-81
2021/07/10 00:22:05;;;;;;;563.15;449.92;;;;;;;;;;4946294;29;20395;-81
2021/07/10 00:24:31;;;;;;;568.38;459.73;;;;;;;;;;4946217;28;20086;-81
2021/07/10 00:26:58;;;;;;;516.15;415.45;;;;;;;;;;4924848;29;20027;-81
2021/07/10 00:29:24;;;;;;;550.17;446.25;;;;;;;;;;4936629;29;20027;-81
2021/07/10 00:31:51;;;;;;;515.50;408.13;;;;;;;;;;4953997;28;20475;-80
2021/07/10 00:34:17;;;;;;;510.42;404.17;;;;;;;;;;4935093;29;20538;-80
2021/07/10 00:36:43;;;;;;;515.42;408.77;;;;;;;;;;4935303;29;20039;-81
2021/07/10 00:39:09;;;;;;;537.38;421.95;;;;;;;;;;4934039;29;20078;-81
2021/07/10 00:41:36;;;;;;;531.80;419.50;;;;;;;;;;4936479;29;20054;-80
2021/07/10 00:44:02;;;;;;;543.08;432.27;;;;;;;;;;4930281;29;20079;-81
2021/07/10 00:46:28;;;;;;;541.70;430.63;;;;;;;;;;4933979;28;20027;-80
2021/07/10 00:48:54;;;;;;;541.53;427.42;;;;;;;;;;4952919;29;20556;-80
2021/07/10 00:51:20;;;;;;;535.28;424.33;;;;;;;;;;4934870;29;20078;-81
2021/07/10 00:53:49;;;;;;;539.67;428.52;;;;;;;;;;4933553;29;20035;-81
2021/07/10 00:56:15;;;;;;;537.17;426.98;;;;;;;;;;4926317;29;20541;-81
2021/07/10 00:58:42;;;;;;;533.00;423.63;;;;;;;;;;4932502;29;20126;-80
2021/07/10 01:01:08;;;;;;;538.80;423.23;;;;;;;;;;4921257;29;20039;-79
2021/07/10 01:03:34;;;;;;;537.53;423.40;;;;;;;;;;4944270;28;20027;-79
2021/07/10 01:06:01;;;;;;;575.10;452.48;;;;;;;;;;4933834;29;20067;-79
2021/07/10 01:08:27;;;;;;;559.45;441.13;;;;;;;;;;4935695;29;20411;-79
2021/07/10 01:10:53;;;;;;;589.13;462.80;;;;;;;;;;4933806;29;20542;-79
2021/07/10 01:13:20;;;;;;;589.20;466.08;;;;;;;;;;4948714;28;20522;-80
2021/07/10 01:15:46;;;;;;;528.33;412.67;;;;;;;;;;4951258;28;20051;-79
2021/07/10 01:18:12;;;;;;;542.28;427.67;;;;;;;;;;4935468;29;20458;-78
2021/07/10 01:21:04;;;;;;;614.80;490.38;;;;;;;;;;4933833;29;20031;-79
2021/07/10 01:23:31;;;;;;;641.17;506.58;;;;;;;;;;4931617;29;20036;-79
2021/07/10 01:25:57;;;;;;;569.88;443.05;;;;;;;;;;4948701;29;20379;-79
2021/07/10 01:28:24;;;;;;;568.53;439.13;;;;;;;;;;4930738;29;20081;-79
2021/07/10 01:30:50;;;;;;;704.83;568.83;;;;;;;;;;4946799;29;20038;-79
2021/07/10 01:33:16;;;;;;;613.72;488.65;;;;;;;;;;4949233;29;20066;-79
2021/07/10 01:35:49;;;;;;;736.67;610.33;;;;;;;;;;4933505;29;20058;-78
2021/07/10 01:38:15;;;;;;;703.67;565.65;;;;;;;;;;4931613;29;20036;-79
2021/07/10 01:40:42;;;;;;;712.10;580.22;;;;;;;;;;4932491;29;20046;-79
2021/07/10 01:43:09;;;;;;;673.72;543.15;;;;;;;;;;4949927;29;20026;-79
2021/07/10 01:45:35;;;;;;;651.20;526.38;;;;;;;;;;4950273;28;20078;-79
2021/07/10 01:48:02;;;;;;;630.17;498.85;;;;;;;;;;4950896;28;20031;-79
2021/07/10 01:50:28;;;;;;;630.38;502.63;;;;;;;;;;4934535;29;20036;-80
2021/07/10 01:52:54;;;;;;;640.70;516.30;;;;;;;;;;4932146;29;20498;-79
2021/07/10 01:55:22;;;;;;;649.33;529.10;;;;;;;;;;4928573;29;20554;-79
2021/07/10 01:57:50;;;;;;;629.65;505.42;;;;;;;;;;4950313;29;20027;-79
2021/07/10 02:00:21;;;;;;;641.55;515.72;;;;;;;;;;4932790;29;20110;-79
2021/07/10 02:02:47;;;;;;;630.42;501.50;;;;;;;;;;4931453;29;20035;-78
2021/07/10 02:05:13;;;;;;;649.92;525.80;;;;;;;;;;4929714;29;20028;-78
2021/07/10 02:07:40;;;;;;;648.42;527.83;;;;;;;;;;4921122;29;20035;-78
2021/07/10 02:10:07;;;;;;;636.67;511.55;;;;;;;;;;4931581;29;20027;-78
2021/07/10 02:12:33;;;;;;;655.80;542.42;;;;;;;;;;4948311;29;20027;-78
2021/07/10 02:14:59;;;;;;;664.13;520.88;;;;;;;;;;4949789;28;20534;-77
2021/07/10 02:17:25;;;;;;;662.58;551.40;;;;;;;;;;4943807;29;20031;-78
2021/07/10 02:19:51;;;;;;;642.13;518.88;;;;;;;;;;4929223;29;20032;-77
2021/07/10 02:22:17;;;;;;;655.83;536.28;;;;;;;;;;4948393;29;20439;-77
2021/07/10 02:24:43;;;;;;;694.03;574.50;;;;;;;;;;4931427;29;20030;-78
2021/07/10 02:27:09;;;;;;;1999.90;645.95;;;;;;;;;;4929479;29;20055;-78
2021/07/10 02:29:35;;;;;;;705.17;577.13;;;;;;;;;;4949532;29;20059;-78
2021/07/10 02:32:01;;;;;;;662.88;531.92;;;;;;;;;;4935236;29;20530;-77
2021/07/10 02:34:27;;;;;;;696.08;525.60;;;;;;;;;;4933484;28;20406;-78
2021/07/10 02:36:53;;;;;;;786.97;551.72;;;;;;;;;;4950334;29;20027;-77
2021/07/10 02:39:19;;;;;;;758.00;643.40;;;;;;;;;;4937806;29;20051;-77
2021/07/10 02:41:45;;;;;;;1001.92;898.33;;;;;;;;;;4932670;29;20650;-77
2021/07/10 02:44:11;;;;;;;634.67;512.75;;;;;;;;;;4925840;28;20118;-78
2021/07/10 02:46:37;;;;;;;624.60;492.27;;;;;;;;;;4945669;29;20027;-78
2021/07/10 02:49:04;;;;;;;628.67;493.35;;;;;;;;;;4929164;29;20031;-78
2021/07/10 02:51:30;;;;;;;665.25;548.22;;;;;;;;;;4942882;29;20034;-78
2021/07/10 02:53:56;;;;;;;724.83;602.45;;;;;;;;;;4920580;28;20166;-78
2021/07/10 02:56:23;;;;;;;760.22;647.97;;;;;;;;;;4932714;29;20028;-78
2021/07/10 02:58:49;;;;;;;896.38;740.45;;;;;;;;;;4932686;29;20023;-77
2021/07/10 03:01:15;;;;;;;594.45;470.10;;;;;;;;;;4948768;29;20054;-78
2021/07/10 03:03:41;;;;;;;965.97;864.95;;;;;;;;;;4934259;29;20063;-78
2021/07/10 03:06:07;;;;;;;685.70;563.83;;;;;;;;;;4948931;29;20102;-77
2021/07/10 03:08:33;;;;;;;781.72;672.50;;;;;;;;;;4933649;29;20134;-78
2021/07/10 03:10:59;;;;;;;726.78;611.47;;;;;;;;;;4948810;29;20031;-78
2021/07/10 03:13:26;;;;;;;719.10;592.95;;;;;;;;;;4943625;29;20085;-77
2021/07/10 03:15:52;;;;;;;749.25;639.78;;;;;;;;;;4935175;29;20027;-77
2021/07/10 03:18:18;;;;;;;773.80;667.83;;;;;;;;;;4949863;29;20395;-78
2021/07/10 03:20:44;;;;;;;807.33;717.25;;;;;;;;;;4951191;29;20425;-77
2021/07/10 03:23:10;;;;;;;891.28;795.67;;;;;;;;;;4951000;28;20062;-78
2021/07/10 03:25:37;;;;;;;870.28;739.03;;;;;;;;;;4936361;29;20467;-78
2021/07/10 03:28:03;;;;;;;845.08;752.50;;;;;;;;;;4953842;29;20039;-78
2021/07/10 03:30:29;;;;;;;863.50;769.72;;;;;;;;;;4948346;29;20498;-78
2021/07/10 03:32:55;;;;;;;949.53;849.92;;;;;;;;;;4935368;29;20035;-77
2021/07/10 03:35:21;;;;;;;949.28;849.72;;;;;;;;;;4937263;28;20097;-78
2021/07/10 03:37:47;;;;;;;1037.90;933.22;;;;;;;;;;4934623;29;20039;-77
2021/07/10 03:40:14;;;;;;;940.60;841.47;;;;;;;;;;4937335;29;20035;-77
2021/07/10 03:42:41;;;;;;;1994.85;999.90;;;;;;;;;;4951341;29;20027;-77
2021/07/10 03:45:08;;;;;;;779.78;676.15;;;;;;;;;;4954011;28;20564;-77
2021/07/10 03:47:34;;;;;;;830.60;739.00;;;;;;;;;;4952973;29;20039;-77
2021/07/10 03:50:00;;;;;;;852.00;759.40;;;;;;;;;;4950902;29;20106;-77
2021/07/10 03:52:26;;;;;;;857.25;586.58;;;;;;;;;;4951523;28;20090;-77
2021/07/10 03:54:52;;;;;;;936.47;836.60;;;;;;;;;;4932163;29;20024;-77
2021/07/10 03:57:18;;;;;;;851.13;667.47;;;;;;;;;;4935994;29;20031;-77
2021/07/10 03:59:44;;;;;;;825.60;668.03;;;;;;;;;;4935031;29;20122;-77
2021/07/10 04:02:10;;;;;;;1083.28;972.30;;;;;;;;;;4930890;29;20023;-77
2021/07/10 04:04:36;;;;;;;1142.20;999.90;;;;;;;;;;4953274;29;20106;-77
2021/07/10 04:07:02;;;;;;;1172.65;999.90;;;;;;;;;;4951775;29;20404;-76
2021/07/10 04:09:28;;;;;;;1116.60;999.10;;;;;;;;;;4936607;29;20129;-77
2021/07/10 04:11:54;;;;;;;1098.70;988.25;;;;;;;;;;4948900;28;20035;-76
2021/07/10 04:14:20;;;;;;;975.83;869.88;;;;;;;;;;4932611;29;20031;-76
2021/07/10 04:16:46;;;;;;;920.88;788.25;;;;;;;;;;4937294;29;20041;-77
2021/07/10 04:19:12;;;;;;;893.92;663.67;;;;;;;;;;4934586;29;20032;-77
2021/07/10 04:21:38;;;;;;;1087.97;975.60;;;;;;;;;;4931916;29;20379;-76
2021/07/10 04:24:04;;;;;;;919.63;782.78;;;;;;;;;;4952123;29;20038;-76
2021/07/10 04:26:30;;;;;;;902.67;754.95;;;;;;;;;;4930157;29;20162;-77
2021/07/10 04:28:56;;;;;;;1122.60;999.90;;;;;;;;;;4946489;29;20117;-76
2021/07/10 04:31:22;;;;;;;914.38;775.15;;;;;;;;;;4933138;29;20035;-77
2021/07/10 04:33:48;;;;;;;1086.70;975.55;;;;;;;;;;4927835;29;20016;-77
2021/07/10 04:36:14;;;;;;;1073.47;963.53;;;;;;;;;;4932485;29;20027;-76
2021/07/10 04:38:40;;;;;;;881.08;726.72;;;;;;;;;;4948183;29;20081;-76
2021/07/10 04:41:06;;;;;;;923.28;815.15;;;;;;;;;;4949945;29;20039;-76
2021/07/10 04:43:33;;;;;;;903.42;761.22;;;;;;;;;;4927384;28;20028;-76
2021/07/10 04:45:59;;;;;;;1141.80;999.90;;;;;;;;;;4949673;29;20082;-76
2021/07/10 04:48:26;;;;;;;897.60;763.25;;;;;;;;;;4948116;29;20404;-76
2021/07/10 04:50:51;;;;;;;901.70;802.28;;;;;;;;;;4932733;29;20027;-76
2021/07/10 04:53:18;;;;;;;895.15;765.25;;;;;;;;;;4930393;29;20031;-76
2021/07/10 04:55:44;;;;;;;981.55;878.70;;;;;;;;;;4933657;28;20045;-76
2021/07/10 04:58:10;;;;;;;1110.75;997.95;;;;;;;;;;4952325;29;20486;-76
2021/07/10 05:00:36;;;;;;;1124.60;999.90;;;;;;;;;;4951905;28;20158;-76
2021/07/10 05:03:02;;;;;;;1094.88;984.00;;;;;;;;;;4952324;29;20027;-76
2021/07/10 05:05:28;;;;;;;1080.53;970.08;;;;;;;;;;4934552;29;20039;-76
2021/07/10 05:07:54;;;;;;;1106.68;993.15;;;;;;;;;;4931599;29;20051;-75
2021/07/10 05:10:21;;;;;;;1124.35;999.90;;;;;;;;;;4926922;29;20126;-76
2021/07/10 05:12:47;;;;;;;1062.82;953.53;;;;;;;;;;4928707;28;20034;-77
2021/07/10 05:15:14;;;;;;;938.92;836.28;;;;;;;;;;4936432;29;20218;-76
2021/07/10 05:17:40;;;;;;;911.08;810.80;;;;;;;;;;4931265;29;20035;-77
2021/07/10 05:20:10;;;;;;;909.75;772.97;;;;;;;;;;4944642;29;20041;-77
2021/07/10 05:22:36;;;;;;;1036.57;929.58;;;;;;;;;;4924654;29;20059;-78
2021/07/10 05:25:02;;;;;;;1032.63;927.80;;;;;;;;;;4933709;29;20204;-76
2021/07/10 05:27:28;;;;;;;924.03;823.17;;;;;;;;;;4934512;29;20027;-77
2021/07/10 05:29:54;;;;;;;918.65;817.00;;;;;;;;;;4933884;29;20578;-78
2021/07/10 05:32:20;;;;;;;997.50;894.70;;;;;;;;;;4931946;29;20036;-78
2021/07/10 05:34:46;;;;;;;904.45;799.65;;;;;;;;;;4935403;29;20062;-79
2021/07/10 05:37:12;;;;;;;915.85;819.88;;;;;;;;;;4930932;29;20066;-79
2021/07/10 05:39:39;;;;;;;987.95;883.20;;;;;;;;;;4931261;28;20035;-79
2021/07/10 05:42:05;;;;;;;1043.95;937.50;;;;;;;;;;4950855;29;20050;-78
2021/07/10 05:44:31;;;;;;;1154.10;999.90;;;;;;;;;;4929236;29;20035;-79
2021/07/10 05:46:57;;;;;;;1117.05;998.13;;;;;;;;;;4951059;29;20019;-78
2021/07/10 05:49:23;;;;;;;1096.05;986.20;;;;;;;;;;4926537;29;20448;-79
2021/07/10 05:51:49;;;;;;;1076.85;969.13;;;;;;;;;;4931379;29;20121;-78
2021/07/10 05:54:15;;;;;;;1044.28;939.75;;;;;;;;;;4936961;29;20039;-78
2021/07/10 05:56:44;;;;;;;1157.05;999.90;;;;;;;;;;4937516;29;20031;-78
2021/07/10 05:59:09;;;;;;;961.80;859.47;;;;;;;;;;4952891;29;20535;-78
2021/07/10 06:01:36;;;;;;;984.78;881.80;;;;;;;;;;4942730;29;20123;-78
2021/07/10 06:04:02;;;;;;;1093.30;985.63;;;;;;;;;;4950985;29;20380;-78
2021/07/10 06:06:28;;;;;;;981.28;875.22;;;;;;;;;;4954135;28;20392;-78
2021/07/10 06:09:00;;;;;;;1081.43;972.08;;;;;;;;;;4941513;29;20365;-78
2021/07/10 06:11:26;;;;;;;1083.13;977.25;;;;;;;;;;4951270;29;20098;-79
2021/07/10 06:13:52;;;;;;;1105.15;995.05;;;;;;;;;;4920149;29;20475;-78
2021/07/10 06:16:18;;;;;;;994.80;887.47;;;;;;;;;;4945606;29;20070;-78
2021/07/10 06:18:44;;;;;;;1157.90;999.90;;;;;;;;;;4946295;28;20118;-78
2021/07/10 06:21:10;;;;;;;1128.28;999.90;;;;;;;;;;4936649;29;20055;-77
2021/07/10 06:23:36;;;;;;;1078.00;972.53;;;;;;;;;;4930609;29;20046;-77
2021/07/10 06:26:02;;;;;;;920.70;819.67;;;;;;;;;;4948612;29;20102;-77
2021/07/10 06:28:28;;;;;;;984.80;886.28;;;;;;;;;;4923203;29;20031;-79
2021/07/10 06:31:10;;;;;;;1017.00;914.45;;;;;;;;;;4943500;29;20050;-78
2021/07/10 06:33:36;;;;;;;1025.25;921.15;;;;;;;;;;4941785;29;20031;-77
2021/07/10 06:36:02;;;;;;;1004.60;899.67;;;;;;;;;;4951469;29;20696;-77
2021/07/10 06:38:28;;;;;;;995.85;893.67;;;;;;;;;;4936083;29;20786;-77
2021/07/10 06:40:54;;;;;;;1149.93;999.90;;;;;;;;;;4944721;29;20024;-80
2021/07/10 06:43:19;;;;;;;1000.42;897.92;;;;;;;;;;4933909;29;20024;-78
2021/07/10 06:45:45;;;;;;;1126.88;999.90;;;;;;;;;;4954087;29;20027;-77
2021/07/10 06:48:11;;;;;;;1026.93;922.80;;;;;;;;;;4936488;29;20035;-77
2021/07/10 06:50:39;;;;;;;1096.00;991.35;;;;;;;;;;4950975;29;20019;-77
2021/07/10 06:53:05;;;;;;;1174.05;999.90;;;;;;;;;;4954655;29;20042;-78
2021/07/10 06:55:31;;;;;;;1058.55;954.83;;;;;;;;;;4932945;29;20035;-83
2021/07/10 06:57:57;;;;;;;997.03;899.15;;;;;;;;;;4940316;29;20038;-79
2021/07/10 07:00:23;;;;;;;1056.88;952.92;;;;;;;;;;4939695;29;20031;-79
2021/07/10 07:02:55;;;;;;;946.72;846.33;;;;;;;;;;4951284;29;20029;-79
2021/07/10 07:05:21;;;;;;;990.80;888.85;;;;;;;;;;4956060;29;20054;-78
2021/07/10 07:07:47;;;;;;;1049.25;945.80;;;;;;;;;;4948713;28;20150;-79
2021/07/10 07:10:13;;;;;;;986.70;889.97;;;;;;;;;;4945706;29;20431;-78
2021/07/10 07:12:40;;;;;;;1181.72;999.90;;;;;;;;;;4956382;29;20081;-79
2021/07/10 07:15:07;;;;;;;1159.95;999.90;;;;;;;;;;4950970;29;20102;-78
2021/07/10 07:17:33;;;;;;;1081.97;978.47;;;;;;;;;;4941442;29;20028;-77
2021/07/10 07:19:59;;;;;;;888.05;796.75;;;;;;;;;;4953292;29;20098;-78
2021/07/10 07:22:26;;;;;;;549.35;486.45;;;;;;;;;;4958101;29;20118;-77
2021/07/10 07:24:55;;;;;;;557.30;495.63;;;;;;;;;;4949467;29;20059;-79
2021/07/10 07:27:20;;;;;;;579.90;516.38;;;;;;;;;;4957711;29;20547;-78
2021/07/10 07:29:47;;;;;;;571.78;509.15;;;;;;;;;;4940504;29;20114;-76
2021/07/10 07:32:13;;;;;;;653.85;584.00;;;;;;;;;;4940594;29;20086;-79
2021/07/10 07:34:39;;;;;;;601.95;537.10;;;;;;;;;;4940065;29;20039;-78
2021/07/10 07:37:08;;;;;;;544.13;484.80;;;;;;;;;;4957481;29;20032;-77
2021/07/10 07:39:34;;;;;;;575.88;513.30;;;;;;;;;;4936954;29;20066;-79
2021/07/10 07:42:00;;;;;;;560.72;499.92;;;;;;;;;;4933944;29;20063;-77
2021/07/10 07:44:26;;;;;;;562.88;502.30;;;;;;;;;;4956093;29;20036;-78
2021/07/10 07:46:52;;;;;;;553.97;493.27;;;;;;;;;;4950607;29;20122;-77
2021/07/10 07:49:33;;;;;;;577.95;515.70;;;;;;;;;;4939977;29;20051;-78
2021/07/10 07:51:59;;;;;;;557.88;497.38;;;;;;;;;;4940545;29;20475;-78
2021/07/10 07:54:27;;;;;;;555.13;494.60;;;;;;;;;;4937255;29;20030;-79
2021/07/10 07:56:53;;;;;;;568.85;507.48;;;;;;;;;;4938200;29;20027;-78
2021/07/10 07:59:20;;;;;;;588.13;524.58;;;;;;;;;;4936939;29;20427;-77
2021/07/10 08:02:01;;;;;;;555.55;495.17;;;;;;;;;;4944650;29;20027;-80
2021/07/10 08:04:27;;;;;;;558.50;497.90;;;;;;;;;;4952986;29;20115;-79
2021/07/10 08:06:53;;;;;;;570.65;509.10;;;;;;;;;;4952886;29;20044;-77
2021/07/10 08:09:19;;;;;;;710.35;564.95;;;;;;;;;;4952617;29;20027;-79
2021/07/10 08:11:45;;;;;;;580.17;518.15;;;;;;;;;;4929801;29;20035;-79
2021/07/10 08:17:33;;;;;;;558.47;498.00;;;;;;;;;;4944366;29;20034;-79
2021/07/10 08:19:59;;;;;;;568.13;507.13;;;;;;;;;;4955655;29;20126;-79
2021/07/10 08:22:25;;;;;;;565.78;505.10;;;;;;;;;;4938852;29;20062;-77
2021/07/10 08:24:51;;;;;;;1116.63;688.60;;;;;;;;;;4947492;29;20035;-78
2021/07/10 08:27:17;;;;;;;582.35;520.28;;;;;;;;;;4937513;29;20027;-77
2021/07/10 08:29:43;;;;;;;584.17;522.33;;;;;;;;;;4939436;29;20129;-77
2021/07/10 08:32:09;;;;;;;566.65;506.33;;;;;;;;;;4939529;29;20034;-78
2021/07/10 08:34:35;;;;;;;577.17;516.13;;;;;;;;;;4955561;29;20028;-78
2021/07/10 08:37:07;;;;;;;712.33;549.08;;;;;;;;;;4939111;29;20027;-79
2021/07/10 08:39:34;;;;;;;587.25;525.63;;;;;;;;;;4951979;29;20039;-78
2021/07/10 08:42:00;;;;;;;605.60;542.22;;;;;;;;;;4945926;29;20476;-78
2021/07/10 08:44:26;;;;;;;593.85;531.25;;;;;;;;;;4930735;29;20027;-78
2021/07/10 08:46:53;;;;;;;601.72;538.95;;;;;;;;;;4938699;29;20019;-78
2021/07/10 08:52:23;;;;;;;584.25;522.13;;;;;;;;;;4953672;29;20042;-77
2021/07/10 08:54:49;;;;;;;581.70;520.17;;;;;;;;;;4939323;29;20394;-77
2021/07/10 08:57:15;;;;;;;584.88;522.70;;;;;;;;;;4938963;29;20648;-78
2021/07/10 08:59:41;;;;;;;579.53;518.20;;;;;;;;;;4935756;29;20035;-77
2021/07/10 09:08:24;;;;;;;570.10;509.63;;;;;;;;;;4955917;29;20447;-79
2021/07/10 09:10:51;;;;;;;576.25;515.25;;;;;;;;;;4941798;29;20658;-79
2021/07/10 09:13:18;;;;;;;584.22;522.65;;;;;;;;;;4936227;29;20364;-79
2021/07/10 09:15:45;;;;;;;593.10;531.30;;;;;;;;;;4934945;29;20079;-77
2021/07/10 09:18:32;;;;;;;587.25;525.78;;;;;;;;;;4936124;29;20054;-78
2021/07/10 09:20:58;;;;;;;570.67;510.83;;;;;;;;;;4945929;29;20070;-76
2021/07/10 09:23:26;;;;;;;581.72;521.15;;;;;;;;;;4935433;29;20034;-77
2021/07/10 09:25:52;;;;;;;582.22;522.15;;;;;;;;;;4953306;29;20082;-78
2021/07/10 09:28:26;;;;;;;592.75;532.13;;;;;;;;;;4938510;29;20030;-77
2021/07/10 09:34:02;;;;;;;576.03;516.22;;;;;;;;;;4951297;29;20053;-77
2021/07/10 09:36:28;;;;;;;576.67;517.05;;;;;;;;;;4933197;29;20034;-78
2021/07/10 09:38:54;;;;;;;596.35;536.08;;;;;;;;;;4933913;29;20031;-79
2021/07/10 09:41:28;;;;;;;613.25;552.25;;;;;;;;;;4947033;29;20054;-82
2021/07/10 09:44:04;;;;;;;611.00;550.38;;;;;;;;;;4937030;29;20471;-82
2021/07/10 09:46:30;;;;;;;634.97;573.35;;;;;;;;;;4937909;29;20114;-79
2021/07/10 09:48:56;;;;;;;627.58;566.60;;;;;;;;;;4938284;29;20523;-79
2021/07/10 09:51:28;;;;;;;631.92;570.80;;;;;;;;;;4934978;29;20079;-80
2021/07/10 09:54:08;;;;;;;618.53;558.60;;;;;;;;;;4937879;29;20114;-80
2021/07/10 09:56:35;;;;;;;608.67;549.08;;;;;;;;;;4938198;29;20055;-80
2021/07/10 09:59:16;;;;;;;621.60;561.25;;;;;;;;;;4938071;29;20031;-80
2021/07/10 10:01:42;;;;;;;608.65;548.92;;;;;;;;;;4936934;29;20154;-80
2021/07/10 10:04:22;;;;;;;612.72;552.67;;;;;;;;;;4953822;29;20027;-82
2021/07/10 10:06:48;;;;;;;597.47;538.13;;;;;;;;;;4918834;29;20823;-80
2021/07/10 10:09:33;;;;;;;605.95;546.50;;;;;;;;;;4919053;29;20683;-80
2021/07/10 10:12:00;;;;;;;602.05;543.38;;;;;;;;;;4952259;29;20102;-80
2021/07/10 10:14:30;;;;;;;625.17;565.25;;;;;;;;;;4938659;29;20082;-80
2021/07/10 10:16:57;;;;;;;621.35;561.63;;;;;;;;;;4937811;29;20566;-78
2021/07/10 10:19:24;;;;;;;622.55;562.92;;;;;;;;;;4953760;29;20027;-80
2021/07/10 10:22:09;;;;;;;643.58;582.17;;;;;;;;;;4937747;29;20035;-81
2021/07/10 10:24:36;;;;;;;637.35;576.45;;;;;;;;;;4938437;29;20159;-82
2021/07/10 10:27:03;;;;;;;632.80;571.55;;;;;;;;;;4936591;29;20031;-83
2021/07/10 10:29:29;;;;;;;662.10;598.58;;;;;;;;;;4938829;29;20028;-81
2021/07/10 10:31:56;;;;;;;839.60;762.75;;;;;;;;;;4954307;29;20023;-81
2021/07/10 10:37:39;;;;;;;598.00;539.47;;;;;;;;;;4954961;29;20391;-80
2021/07/10 10:40:07;;;;;;;590.08;532.78;;;;;;;;;;4954549;29;20126;-79
2021/07/10 10:42:33;;;;;;;594.83;537.60;;;;;;;;;;4952512;29;20475;-81
2021/07/10 10:45:01;;;;;;;596.00;538.92;;;;;;;;;;4938764;29;20039;-80
2021/07/10 10:47:53;;;;;;;615.17;557.63;;;;;;;;;;4954638;29;20093;-80
2021/07/10 10:50:24;;;;;;;634.58;576.17;;;;;;;;;;4948127;29;20406;-81
2021/07/10 10:52:51;;;;;;;630.00;572.00;;;;;;;;;;4935274;29;20558;-81
2021/07/10 10:55:20;;;;;;;633.60;575.40;;;;;;;;;;4954478;29;20483;-80
2021/07/10 10:57:55;;;;;;;636.50;578.17;;;;;;;;;;4937417;29;20050;-80
2021/07/10 11:00:23;;;;;;;629.45;571.33;;;;;;;;;;4928112;29;20028;-82
2021/07/10 11:02:49;;;;;;;631.45;573.17;;;;;;;;;;4936871;29;20479;-79
2021/07/10 11:05:39;;;;;;;632.42;574.20;;;;;;;;;;4937254;29;20089;-83
2021/07/10 11:11:30;;;;;;;628.00;569.60;;;;;;;;;;4954617;29;20031;-81
2021/07/10 11:14:10;;;;;;;630.45;572.05;;;;;;;;;;4929537;29;20718;-80
2021/07/10 11:16:37;;;;;;;634.85;576.33;;;;;;;;;;4925022;29;20036;-83
2021/07/10 11:19:04;;;;;;;648.17;589.30;;;;;;;;;;4941218;28;20031;-86
2021/07/10 11:21:49;;;;;;;657.55;598.15;;;;;;;;;;4951959;28;20035;-83
2021/07/10 11:26:56;;;;;;;653.63;594.30;;;;;;;;;;4954340;29;20024;-83
2021/07/10 11:29:25;;;;;;;649.95;590.70;;;;;;;;;;4934229;29;20094;-85
2021/07/10 11:34:57;;;;;;;649.08;589.50;;;;;;;;;;4947236;29;20051;-81
2021/07/10 11:37:24;;;;;;;659.45;599.60;;;;;;;;;;4953560;29;20091;-80
2021/07/10 11:39:50;;;;;;;667.63;607.47;;;;;;;;;;4937146;29;20493;-81
2021/07/10 11:42:30;;;;;;;665.53;606.00;;;;;;;;;;4937452;29;20036;-82
2021/07/10 11:45:03;;;;;;;1640.50;795.28;;;;;;;;;;4938885;29;20055;-78
2021/07/10 11:47:37;;;;;;;697.50;629.08;;;;;;;;;;4940474;29;20031;-83
2021/07/10 11:50:06;;;;;;;973.35;770.83;;;;;;;;;;4936849;29;20507;-82
2021/07/10 11:52:35;;;;;;;692.55;631.72;;;;;;;;;;4957121;29;20046;-81
2021/07/10 11:55:05;;;;;;;691.60;630.67;;;;;;;;;;4937073;29;20036;-82
2021/07/10 11:57:36;;;;;;;1999.90;999.90;;;;;;;;;;4925270;29;20043;-84
2021/07/10 12:00:04;;;;;;;1999.90;999.90;;;;;;;;;;4957294;29;20600;-81
2021/07/10 12:02:32;;;;;;;1999.90;999.90;;;;;;;;;;4955930;29;20027;-82
2021/07/10 12:08:04;;;;;;;1999.90;999.90;;;;;;;;;;4956694;29;20058;-77
2021/07/10 12:10:34;;;;;;;720.03;657.28;;;;;;;;;;4927131;29;20436;-82
2021/07/10 12:13:01;;;;;;;841.47;763.22;;;;;;;;;;4936955;29;21483;-80
2021/07/10 12:15:32;;;;;;;730.67;667.72;;;;;;;;;;4937275;29;21135;-83
2021/07/10 12:18:20;;;;;;;720.28;658.58;;;;;;;;;;4948081;29;20042;-83
2021/07/10 12:20:49;;;;;;;747.35;683.55;;;;;;;;;;4928601;29;20027;-82
2021/07/10 12:23:17;;;;;;;751.15;686.80;;;;;;;;;;4936611;29;20388;-81
2021/07/10 12:25:43;;;;;;;801.22;733.08;;;;;;;;;;4936319;29;20024;-81
2021/07/10 12:28:09;;;;;;;768.30;701.88;;;;;;;;;;4932679;29;20034;-84
2021/07/10 12:30:56;;;;;;;765.47;698.60;;;;;;;;;;4950291;29;20118;-80
2021/07/10 12:33:28;;;;;;;770.35;702.60;;;;;;;;;;4938517;29;20031;-82
2021/07/10 12:36:11;;;;;;;782.85;714.42;;;;;;;;;;4939573;29;20388;-84
2021/07/10 12:38:47;;;;;;;704.95;642.47;;;;;;;;;;4938905;29;20031;-81
2021/07/10 12:41:17;;;;;;;742.42;677.75;;;;;;;;;;4932254;29;20051;-82
2021/07/10 12:43:43;;;;;;;700.88;639.90;;;;;;;;;;4937552;29;20035;-81
2021/07/10 12:49:48;;;;;;;682.50;623.88;;;;;;;;;;4955930;29;20395;-87
2021/07/10 12:52:20;;;;;;;687.58;629.13;;;;;;;;;;4880731;29;20085;-83
2021/07/10 12:54:50;;;;;;;704.15;645.47;;;;;;;;;;4935192;29;20130;-82
2021/07/10 12:57:21;;;;;;;710.38;651.65;;;;;;;;;;4956103;29;20031;-84
2021/07/10 13:00:08;;;;;;;712.40;653.97;;;;;;;;;;4936895;29;20039;-84
2021/07/10 13:02:37;;;;;;;705.88;648.03;;;;;;;;;;4956085;29;20627;-82
2021/07/10 13:05:15;;;;;;;722.47;664.05;;;;;;;;;;4943591;29;20023;-81
2021/07/10 13:07:42;;;;;;;714.47;656.17;;;;;;;;;;4928464;29;20592;-82
2021/07/10 13:10:21;;;;;;;717.10;658.70;;;;;;;;;;4935450;29;20063;-81
2021/07/10 13:12:50;;;;;;;701.90;643.83;;;;;;;;;;4952972;29;20039;-81
2021/07/10 13:15:18;;;;;;;711.40;652.58;;;;;;;;;;4937812;29;20170;-81
2021/07/10 13:18:03;;;;;;;689.92;631.72;;;;;;;;;;4938439;29;20427;-82
2021/07/10 13:20:57;;;;;;;679.83;621.60;;;;;;;;;;4941556;29;20486;-81
2021/07/10 13:23:29;;;;;;;699.30;640.08;;;;;;;;;;4932110;29;20016;-81
2021/07/10 13:25:55;;;;;;;687.17;628.47;;;;;;;;;;4955841;29;20020;-83
2021/07/10 13:28:22;;;;;;;680.20;621.80;;;;;;;;;;4944423;29;20054;-80
2021/07/10 13:30:48;;;;;;;679.75;621.13;;;;;;;;;;4950426;29;20023;-81
2021/07/10 13:36:37;;;;;;;663.30;604.60;;;;;;;;;;4954128;29;20083;-85
2021/07/10 13:39:06;;;;;;;643.22;584.95;;;;;;;;;;4951364;29;20031;-78
2021/07/10 13:41:34;;;;;;;641.15;582.63;;;;;;;;;;4924911;29;20046;-84
2021/07/10 13:44:00;;;;;;;633.83;575.50;;;;;;;;;;4932916;29;20032;-83
2021/07/10 13:46:26;;;;;;;631.35;572.72;;;;;;;;;;4938245;29;20031;-83
2021/07/10 13:52:19;;;;;;;620.55;561.67;;;;;;;;;;4955603;29;20034;-83
2021/07/10 13:54:46;;;;;;;611.47;553.25;;;;;;;;;;4934130;29;20027;-83
2021/07/10 13:57:23;;;;;;;614.63;556.10;;;;;;;;;;4948955;29;20358;-83
2021/07/10 14:00:00;;;;;;;781.97;609.95;;;;;;;;;;4933506;29;20123;-87
2021/07/10 14:02:30;;;;;;;631.70;571.70;;;;;;;;;;4937503;29;20045;-83
2021/07/10 14:05:01;;;;;;;636.10;575.80;;;;;;;;;;4965362;28;20471;-84
2021/07/10 14:07:27;;;;;;;629.15;569.38;;;;;;;;;;4953765;29;20058;-83
2021/07/10 14:09:54;;;;;;;630.90;570.90;;;;;;;;;;4937423;29;20031;-82
2021/07/10 14:12:19;;;;;;;595.83;538.58;;;;;;;;;;4931430;29;20032;-81
2021/07/10 14:14:47;;;;;;;597.22;539.70;;;;;;;;;;4929823;29;20059;-81
2021/07/10 14:17:13;;;;;;;596.50;539.03;;;;;;;;;;4937756;29;20031;-86
2021/07/10 14:19:39;;;;;;;595.15;537.67;;;;;;;;;;4934091;29;20038;-83
2021/07/10 14:22:05;;;;;;;592.70;535.38;;;;;;;;;;4936085;29;20023;-83
2021/07/10 14:24:31;;;;;;;591.83;534.50;;;;;;;;;;4927858;29;20031;-83
2021/07/10 14:27:03;;;;;;;588.78;531.47;;;;;;;;;;4928265;29;20019;-82
2021/07/10 14:29:30;;;;;;;583.67;526.38;;;;;;;;;;4934669;29;20028;-81
2021/07/10 14:31:56;;;;;;;591.17;533.50;;;;;;;;;;4923044;29;20099;-84
2021/07/10 14:34:22;;;;;;;591.97;534.28;;;;;;;;;;4945628;29;20027;-81
2021/07/10 14:36:48;;;;;;;592.53;534.70;;;;;;;;;;4937240;29;20448;-83